首页
METAR-TAF:

METAR-TAF

机场 :

Podor, 塞内加尔

纬度: 16-39N, 经度: 014-58W, 海拔: 6米

当前天气观测

该预报发布于2小时和4分钟前的03:00 UTC
风速6节,风向
温度 34°C
湿度 28%
气压 1012 hPa
能見度: 8000

METAR: GOSP 280300Z 18006KT 8000 NSC 34/13 Q1012

时间: 05:04 (05:04 UTC)


TAF: 丢失

超过4000个机场的气象观测和天气预报(METAR&TAF报告)。

可查询的气象台以黄色和红色小点在地图上表示。

将鼠标移到小点上方,可查看气象台名称。

然后点击查看天气观测和预报。

如需切换地图:点击带黑十字的绿色按钮放大地图;点击带横线的绿色按钮缩小地图;或者点击绿色箭头查看邻近地区的地图。


METAR-TAF: